createdAt,value
2015-05-14T00:00:10.287Z,95189
2015-05-14T00:00:29.087Z,95187
2015-05-14T00:00:47.572Z,95178
2015-05-14T00:01:05.978Z,95181
2015-05-14T00:01:24.511Z,95178
2015-05-14T00:01:43.339Z,95187
2015-05-14T00:02:01.870Z,95181
2015-05-14T00:02:20.419Z,95175
2015-05-14T00:02:39.185Z,95170
2015-05-14T00:02:57.904Z,95178
2015-05-14T00:03:16.610Z,95170
2015-05-14T00:03:35.079Z,95175
2015-05-14T00:03:53.563Z,95175
2015-05-14T00:04:12.297Z,95173
2015-05-14T00:04:30.689Z,95178
2015-05-14T00:04:49.392Z,95179
2015-05-14T00:05:07.845Z,95173
2015-05-14T00:05:26.411Z,95170
2015-05-14T00:05:44.801Z,95173
2015-05-14T00:06:03.239Z,95170
2015-05-14T00:06:21.711Z,95170
2015-05-14T00:06:40.132Z,95162
2015-05-14T00:06:58.648Z,95165
2015-05-14T00:07:17.257Z,95156
2015-05-14T00:07:35.681Z,95162
2015-05-14T00:07:54.119Z,95162
2015-05-14T00:08:12.181Z,95159
2015-05-14T00:08:30.730Z,95159
2015-05-14T00:08:49.199Z,95159
2015-05-14T00:09:07.668Z,95168
2015-05-14T00:09:26.249Z,95159
2015-05-14T00:09:44.639Z,95154
2015-05-14T00:10:02.514Z,95157
2015-05-14T00:10:21.436Z,95148
2015-05-14T00:10:40.001Z,95169
2015-05-14T00:10:58.532Z,95154
2015-05-14T00:11:16.970Z,95163
2015-05-14T00:11:35.379Z,95157
2015-05-14T00:11:53.973Z,95155
2015-05-14T00:12:12.519Z,95155
2015-05-14T00:12:31.067Z,95161
2015-05-14T00:12:49.567Z,95158
2015-05-14T00:13:07.974Z,95164
2015-05-14T00:13:26.758Z,95152
2015-05-14T00:13:45.398Z,95155
2015-05-14T00:14:03.820Z,95149
2015-05-14T00:14:22.570Z,95155
2015-05-14T00:14:40.822Z,95155
2015-05-14T00:14:59.619Z,95152
2015-05-14T00:15:18.213Z,95147
2015-05-14T00:15:36.887Z,95144
2015-05-14T00:15:55.449Z,95141
2015-05-14T00:16:13.840Z,95150
2015-05-14T00:16:32.699Z,95150
2015-05-14T00:16:51.297Z,95147
2015-05-14T00:17:09.938Z,95138
2015-05-14T00:17:28.453Z,95144
2015-05-14T00:17:47.001Z,95144
2015-05-14T00:18:05.657Z,95144
2015-05-14T00:18:24.111Z,95141
2015-05-14T00:18:42.470Z,95153
2015-05-14T00:19:01.035Z,95141
2015-05-14T00:19:19.614Z,95133
2015-05-14T00:19:38.035Z,95136
2015-05-14T00:19:56.429Z,95141
2015-05-14T00:20:15.038Z,95145
2015-05-14T00:20:33.695Z,95145
2015-05-14T00:20:52.133Z,95147
2015-05-14T00:21:10.758Z,95145
2015-05-14T00:21:29.399Z,95145
2015-05-14T00:21:47.871Z,95148
2015-05-14T00:22:06.496Z,95139
2015-05-14T00:22:25.261Z,95142
2015-05-14T00:22:43.761Z,95142
2015-05-14T00:23:02.264Z,95139
2015-05-14T00:23:20.733Z,95139
2015-05-14T00:23:39.374Z,95137
2015-05-14T00:23:58.015Z,95145
2015-05-14T00:24:16.609Z,95137
2015-05-14T00:24:35.390Z,95148
2015-05-14T00:24:54.018Z,95140
2015-05-14T00:25:12.862Z,95148
2015-05-14T00:25:31.471Z,95163
2015-05-14T00:25:50.036Z,95149
2015-05-14T00:26:08.567Z,95160
2015-05-14T00:26:27.036Z,95166
2015-05-14T00:26:45.614Z,95160
2015-05-14T00:27:04.179Z,95157
2015-05-14T00:27:22.633Z,95169
2015-05-14T00:27:41.226Z,95166
2015-05-14T00:27:59.697Z,95160
2015-05-14T00:28:17.838Z,95166
2015-05-14T00:28:36.650Z,95163
2015-05-14T00:28:55.103Z,95169
2015-05-14T00:29:13.933Z,95157
2015-05-14T00:29:32.324Z,95163
2015-05-14T00:29:50.621Z,95160
2015-05-14T00:30:09.107Z,95154
2015-05-14T00:30:27.623Z,95158
2015-05-14T00:30:46.310Z,95163
2015-05-14T00:31:04.923Z,95149
2015-05-14T00:31:23.204Z,95149
2015-05-14T00:31:41.892Z,95149
2015-05-14T00:32:00.345Z,95152
2015-05-14T00:32:18.941Z,95146
2015-05-14T00:32:37.441Z,95152
2015-05-14T00:32:55.973Z,95143
2015-05-14T00:33:14.568Z,95146
2015-05-14T00:33:33.443Z,95146
2015-05-14T00:33:52.006Z,95146
2015-05-14T00:34:10.539Z,95140
2015-05-14T00:34:29.008Z,95148
2015-05-14T00:34:47.774Z,95145
2015-05-14T00:35:06.399Z,95145
2015-05-14T00:35:24.917Z,95151
2015-05-14T00:35:43.636Z,95145
2015-05-14T00:36:02.292Z,95145
2015-05-14T00:36:20.872Z,95142
2015-05-14T00:36:39.325Z,95153
2015-05-14T00:36:57.779Z,95156
2015-05-14T00:37:16.391Z,95148
2015-05-14T00:37:35.110Z,95142
2015-05-14T00:37:53.813Z,95156
2015-05-14T00:38:12.564Z,95147
2015-05-14T00:38:30.954Z,95153
2015-05-14T00:38:49.408Z,95142
2015-05-14T00:39:07.283Z,95148
2015-05-14T00:39:25.707Z,95142
2015-05-14T00:39:45.051Z,95156
2015-05-14T00:40:03.567Z,95153
2015-05-14T00:40:22.147Z,95150
2015-05-14T00:40:40.538Z,95150
2015-05-14T00:40:59.038Z,95156
2015-05-14T00:41:17.587Z,95150
2015-05-14T00:41:36.212Z,95156
2015-05-14T00:41:54.837Z,95159
2015-05-14T00:42:13.541Z,95156
2015-05-14T00:42:32.089Z,95162
2015-05-14T00:42:50.839Z,95159
2015-05-14T00:43:09.433Z,95161
2015-05-14T00:43:28.076Z,95158
2015-05-14T00:43:46.654Z,95150
2015-05-14T00:44:08.076Z,95138
2015-05-14T00:44:26.766Z,95147
2015-05-14T00:44:45.298Z,95138
2015-05-14T00:45:03.923Z,95141
2015-05-14T00:45:22.565Z,95141
2015-05-14T00:45:41.018Z,95141
2015-05-14T00:45:59.425Z,95144
2015-05-14T00:46:17.878Z,95146
2015-05-14T00:46:36.443Z,95144
2015-05-14T00:46:54.834Z,95146
2015-05-14T00:47:13.287Z,95146
2015-05-14T00:47:31.693Z,95141
2015-05-14T00:47:50.290Z,95149
2015-05-14T00:48:08.884Z,95143
2015-05-14T00:48:27.462Z,95140
2015-05-14T00:48:45.917Z,95157
2015-05-14T00:49:04.354Z,95134
2015-05-14T00:49:22.839Z,95146
2015-05-14T00:49:41.731Z,95143
2015-05-14T00:50:00.356Z,95143
2015-05-14T00:50:19.091Z,95140
2015-05-14T00:50:37.731Z,95137
2015-05-14T00:50:56.140Z,95137
2015-05-14T00:51:14.827Z,95151
2015-05-14T00:51:33.452Z,95140
2015-05-14T00:51:52.049Z,95145
2015-05-14T00:52:10.674Z,95140
2015-05-14T00:52:28.408Z,95151
2015-05-14T00:52:46.895Z,95142
2015-05-14T00:53:05.348Z,95148
2015-05-14T00:53:23.738Z,95148
2015-05-14T00:53:42.223Z,95154
2015-05-14T00:54:00.804Z,95156
2015-05-14T00:54:19.320Z,95153
2015-05-14T00:54:37.913Z,95153
2015-05-14T00:54:56.493Z,95159
2015-05-14T00:55:15.040Z,95156
2015-05-14T00:55:33.572Z,95162
2015-05-14T00:55:51.995Z,95162
2015-05-14T00:56:10.667Z,95168
2015-05-14T00:56:29.261Z,95168
2015-05-14T00:56:47.733Z,95165
2015-05-14T00:57:06.233Z,95179
2015-05-14T00:57:24.717Z,95168
2015-05-14T00:57:43.108Z,95179
2015-05-14T00:58:01.860Z,95171
2015-05-14T00:58:20.329Z,95185
2015-05-14T00:58:38.954Z,95174
2015-05-14T00:58:57.613Z,95176
2015-05-14T00:59:16.019Z,95191
2015-05-14T00:59:34.753Z,95188
2015-05-14T00:59:53.192Z,95188
2015-05-14T01:00:11.067Z,95185
2015-05-14T01:00:29.458Z,95194
2015-05-14T01:00:48.176Z,95185
2015-05-14T01:01:06.789Z,95191
2015-05-14T01:01:25.242Z,95191
2015-05-14T01:01:43.007Z,95185
2015-05-14T01:02:01.525Z,95194
2015-05-14T01:02:19.916Z,95191
2015-05-14T01:02:38.322Z,95194
2015-05-14T01:02:56.762Z,95194
2015-05-14T01:03:15.200Z,95188
2015-05-14T01:03:33.606Z,95194
2015-05-14T01:03:52.169Z,95188
2015-05-14T01:04:10.921Z,95183
2015-05-14T01:04:29.499Z,95191
2015-05-14T01:04:48.077Z,95191
2015-05-14T01:05:06.501Z,95191
2015-05-14T01:05:24.891Z,95182
2015-05-14T01:05:43.298Z,95191
2015-05-14T01:06:01.816Z,95185
2015-05-14T01:06:20.410Z,95188
2015-05-14T01:06:39.004Z,95174
2015-05-14T01:06:57.519Z,95188
2015-05-14T01:07:15.928Z,95188
2015-05-14T01:07:34.350Z,95188
2015-05-14T01:07:52.896Z,95191
2015-05-14T01:08:11.649Z,95191
2015-05-14T01:08:30.118Z,95191
2015-05-14T01:08:48.790Z,95191
2015-05-14T01:09:07.181Z,95191
2015-05-14T01:09:25.589Z,95190
2015-05-14T01:09:43.995Z,95204
2015-05-14T01:10:02.573Z,95187
2015-05-14T01:10:21.138Z,95193
2015-05-14T01:10:39.763Z,95187
2015-05-14T01:10:58.185Z,95193
2015-05-14T01:11:16.672Z,95184
2015-05-14T01:11:35.063Z,95190
2015-05-14T01:11:53.453Z,95195
2015-05-14T01:12:12.110Z,95187
2015-05-14T01:12:30.597Z,95178
2015-05-14T01:12:49.019Z,95181
2015-05-14T01:13:07.550Z,95184
2015-05-14T01:13:26.208Z,95178
2015-05-14T01:13:44.661Z,95181
2015-05-14T01:14:03.068Z,95184
2015-05-14T01:14:21.458Z,95175
2015-05-14T01:14:40.117Z,95183
2015-05-14T01:14:58.679Z,95186
2015-05-14T01:15:17.288Z,95177
2015-05-14T01:15:35.885Z,95174
2015-05-14T01:15:54.620Z,95183
2015-05-14T01:16:13.073Z,95166
2015-05-14T01:16:31.668Z,95171
2015-05-14T01:16:50.122Z,95169
2015-05-14T01:17:08.840Z,95163
2015-05-14T01:17:27.311Z,95163
2015-05-14T01:17:45.780Z,95160
2015-05-14T01:18:04.405Z,95165
2015-05-14T01:18:22.795Z,95162
2015-05-14T01:18:41.391Z,95162
2015-05-14T01:18:59.844Z,95165
2015-05-14T01:19:18.391Z,95171
2015-05-14T01:19:36.941Z,95173
2015-05-14T01:19:55.550Z,95176
2015-05-14T01:20:14.332Z,95176
2015-05-14T01:20:33.068Z,95179
2015-05-14T01:20:51.771Z,95184
2015-05-14T01:21:10.365Z,95176
2015-05-14T01:21:28.943Z,95181
2015-05-14T01:21:47.352Z,95184
2015-05-14T01:22:06.040Z,95181
2015-05-14T01:22:24.430Z,95189
2015-05-14T01:22:43.073Z,95184
2015-05-14T01:23:01.557Z,95189
2015-05-14T01:23:20.104Z,95184
2015-05-14T01:23:38.544Z,95183
2015-05-14T01:23:57.184Z,95189
2015-05-14T01:24:15.731Z,95195
2015-05-14T01:24:34.531Z,95183
2015-05-14T01:24:53.125Z,95192
2015-05-14T01:25:11.625Z,95189
2015-05-14T01:25:30.172Z,95186
2015-05-14T01:25:48.439Z,95189
2015-05-14T01:26:06.861Z,95198
2015-05-14T01:26:25.268Z,95195
2015-05-14T01:26:43.817Z,95195
2015-05-14T01:27:02.458Z,95189
2015-05-14T01:27:21.005Z,95187
2015-05-14T01:27:39.427Z,95189
2015-05-14T01:27:58.037Z,95189
2015-05-14T01:28:16.678Z,95186
2015-05-14T01:28:35.209Z,95192
2015-05-14T01:29:13.291Z,95186
2015-05-14T01:29:31.682Z,95186
2015-05-14T01:29:50.121Z,95192
2015-05-14T01:30:08.684Z,95192
2015-05-14T01:30:27.153Z,95184
2015-05-14T01:30:45.809Z,95187
2015-05-14T01:31:04.405Z,95186
2015-05-14T01:31:22.905Z,95183
2015-05-14T01:31:41.311Z,95178
2015-05-14T01:31:59.939Z,95183
2015-05-14T01:32:18.392Z,95177
2015-05-14T01:32:36.908Z,95175
2015-05-14T01:32:55.847Z,95177
2015-05-14T01:33:14.347Z,95174
2015-05-14T01:33:33.050Z,95169
2015-05-14T01:33:51.741Z,95169
2015-05-14T01:34:10.209Z,95168
2015-05-14T01:34:28.991Z,95165
2015-05-14T01:34:47.475Z,95165
2015-05-14T01:35:06.242Z,95171
2015-05-14T01:35:24.664Z,95177
2015-05-14T01:35:43.460Z,95171
2015-05-14T01:36:01.932Z,95174
2015-05-14T01:36:20.323Z,95171
2015-05-14T01:36:38.792Z,95177
2015-05-14T01:36:57.481Z,95180
2015-05-14T01:37:15.997Z,95169
2015-05-14T01:37:34.419Z,95171
2015-05-14T01:37:53.106Z,95174
2015-05-14T01:38:11.765Z,95171
2015-05-14T01:38:30.312Z,95174
2015-05-14T01:38:48.734Z,95183
2015-05-14T01:39:07.142Z,95171
2015-05-14T01:39:25.658Z,95171
2015-05-14T01:39:44.424Z,95169
2015-05-14T01:40:02.863Z,95172
2015-05-14T01:40:21.285Z,95169
2015-05-14T01:40:39.801Z,95175
2015-05-14T01:40:58.238Z,95181
2015-05-14T01:41:16.866Z,95175
2015-05-14T01:41:35.304Z,95178
2015-05-14T01:41:53.741Z,95175
2015-05-14T01:42:12.243Z,95169
2015-05-14T01:42:30.962Z,95167
2015-05-14T01:42:49.415Z,95169
2015-05-14T01:43:07.902Z,95167
2015-05-14T01:43:26.512Z,95167
2015-05-14T01:43:45.184Z,95170
2015-05-14T01:44:04.154Z,95170
2015-05-14T01:44:22.686Z,95167
2015-05-14T01:44:41.436Z,95153
2015-05-14T01:44:59.920Z,95164
2015-05-14T01:45:18.531Z,95167
2015-05-14T01:45:37.125Z,95169
2015-05-14T01:45:55.563Z,95167
2015-05-14T01:46:14.378Z,95161
2015-05-14T01:46:32.878Z,95172
2015-05-14T01:46:51.566Z,95170
2015-05-14T01:47:10.083Z,95164
2015-05-14T01:47:28.036Z,95167
2015-05-14T01:47:46.458Z,95161
2015-05-14T01:48:04.380Z,95164
2015-05-14T01:48:22.976Z,95164
2015-05-14T01:48:41.429Z,95155
2015-05-14T01:48:59.991Z,95158
2015-05-14T01:49:18.573Z,95153
2015-05-14T01:49:36.963Z,95164
2015-05-14T01:49:55.448Z,95155
2015-05-14T01:50:13.885Z,95153
2015-05-14T01:50:32.762Z,95155
2015-05-14T01:50:51.356Z,95158
2015-05-14T01:51:09.981Z,95155
2015-05-14T01:51:28.577Z,95152
2015-05-14T01:51:46.967Z,95147
2015-05-14T01:52:05.373Z,95152
2015-05-14T01:52:23.813Z,95147
2015-05-14T01:52:42.235Z,95152
2015-05-14T01:53:01.172Z,95149
2015-05-14T01:53:19.675Z,95149
2015-05-14T01:53:38.457Z,95146
2015-05-14T01:53:57.316Z,95140
2015-05-14T01:54:15.816Z,95160
2015-05-14T01:54:34.302Z,95149
2015-05-14T01:54:52.927Z,95152
2015-05-14T01:55:11.427Z,95152
2015-05-14T01:55:30.023Z,95140
2015-05-14T01:55:48.617Z,95157
2015-05-14T01:56:07.164Z,95143
2015-05-14T01:56:25.651Z,95152
2015-05-14T01:56:44.120Z,95152
2015-05-14T01:57:02.510Z,95160
2015-05-14T01:57:21.089Z,95143
2015-05-14T01:57:39.560Z,95146
2015-05-14T01:57:58.060Z,95154
2015-05-14T01:58:16.467Z,95160
2015-05-14T01:58:35.125Z,95154
2015-05-14T01:58:53.562Z,95152
2015-05-14T01:59:12.000Z,95149
2015-05-14T01:59:30.674Z,95157
2015-05-14T01:59:49.174Z,95160
2015-05-14T02:00:07.658Z,95160
2015-05-14T02:00:26.174Z,95154
2015-05-14T02:00:44.957Z,95148
2015-05-14T02:01:03.457Z,95154
2015-05-14T02:01:22.066Z,95151
2015-05-14T02:01:40.600Z,95148
2015-05-14T02:01:59.115Z,95151
2015-05-14T02:02:17.568Z,95145
2015-05-14T02:02:36.056Z,95157
2015-05-14T02:02:54.556Z,95142
2015-05-14T02:03:12.993Z,95150
2015-05-14T02:03:31.761Z,95156
2015-05-14T02:03:50.370Z,95165
2015-05-14T02:04:08.870Z,95150
2015-05-14T02:04:27.495Z,95165
2015-05-14T02:04:46.233Z,95156
2015-05-14T02:05:04.983Z,95150
2015-05-14T02:05:23.592Z,95165
2015-05-14T02:05:42.017Z,95159
2015-05-14T02:06:00.423Z,95165
2015-05-14T02:06:19.001Z,95159
2015-05-14T02:06:37.456Z,95165
2015-05-14T02:06:56.050Z,95170
2015-05-14T02:07:14.972Z,95162
2015-05-14T02:07:33.456Z,95159
2015-05-14T02:07:51.974Z,95173
2015-05-14T02:08:10.833Z,95170
2015-05-14T02:08:29.318Z,95162
2015-05-14T02:08:47.773Z,95162
2015-05-14T02:09:06.398Z,95159
2015-05-14T02:09:25.148Z,95164
2015-05-14T02:09:43.948Z,95159
2015-05-14T02:10:02.666Z,95159
2015-05-14T02:10:21.526Z,95167
2015-05-14T02:10:40.088Z,95161
2015-05-14T02:10:58.559Z,95167
2015-05-14T02:11:17.012Z,95170
2015-05-14T02:11:35.434Z,95164
2015-05-14T02:11:53.952Z,95167
2015-05-14T02:12:12.436Z,95161
2015-05-14T02:12:30.905Z,95161
2015-05-14T02:12:48.688Z,95158
2015-05-14T02:13:07.141Z,95161
2015-05-14T02:13:25.297Z,95161
2015-05-14T02:13:43.722Z,95164
2015-05-14T02:14:11.160Z,95161
2015-05-14T02:14:29.629Z,95167
2015-05-14T02:14:48.303Z,95161
2015-05-14T02:15:06.803Z,95161
2015-05-14T02:15:25.194Z,95164
2015-05-14T02:15:43.147Z,95167
2015-05-14T02:16:01.665Z,95169
2015-05-14T02:16:20.024Z,95164
2015-05-14T02:16:38.477Z,95169
2015-05-14T02:16:57.011Z,95169
2015-05-14T02:17:15.761Z,95163
2015-05-14T02:17:34.432Z,95181
2015-05-14T02:17:52.903Z,95175
2015-05-14T02:18:11.309Z,95181
2015-05-14T02:18:29.919Z,95164
2015-05-14T02:18:48.450Z,95175
2015-05-14T02:19:07.016Z,95175
2015-05-14T02:19:25.500Z,95169
2015-05-14T02:19:44.016Z,95172
2015-05-14T02:20:02.502Z,95178
2015-05-14T02:20:21.330Z,95178
2015-05-14T02:20:39.736Z,95184
2015-05-14T02:20:58.143Z,95172
2015-05-14T02:21:16.880Z,95181
2015-05-14T02:21:35.411Z,95172
2015-05-14T02:21:53.927Z,95175
2015-05-14T02:22:12.476Z,95181
2015-05-14T02:22:30.882Z,95184
2015-05-14T02:22:49.507Z,95178
2015-05-14T02:23:08.135Z,95175
2015-05-14T02:23:26.604Z,95186
2015-05-14T02:23:45.057Z,95184
2015-05-14T02:24:03.481Z,95184
2015-05-14T02:24:22.028Z,95181
2015-05-14T02:24:40.699Z,95178
2015-05-14T02:24:59.387Z,95178
2015-05-14T02:25:17.811Z,95186
2015-05-14T02:25:36.311Z,95186
2015-05-14T02:25:54.311Z,95175
2015-05-14T02:26:12.782Z,95180
2015-05-14T02:26:31.297Z,95177
2015-05-14T02:26:49.688Z,95177
2015-05-14T02:27:08.221Z,95177
2015-05-14T02:27:26.721Z,95177
2015-05-14T02:27:45.299Z,95172
2015-05-14T02:28:03.862Z,95172
2015-05-14T02:28:22.396Z,95177
2015-05-14T02:28:41.037Z,95169
2015-05-14T02:28:59.458Z,95174
2015-05-14T02:29:18.226Z,95177
2015-05-14T02:29:36.929Z,95177
2015-05-14T02:29:55.507Z,95180
2015-05-14T02:30:13.994Z,95168
2015-05-14T02:30:32.525Z,95177
2015-05-14T02:30:51.119Z,95174
2015-05-14T02:31:09.650Z,95177
2015-05-14T02:31:28.106Z,95168
2015-05-14T02:31:46.387Z,95172
2015-05-14T02:32:04.965Z,95169
2015-05-14T02:32:23.359Z,95172
2015-05-14T02:32:41.797Z,95166
2015-05-14T02:33:00.218Z,95166
2015-05-14T02:33:18.674Z,95166
2015-05-14T02:33:37.174Z,95169
2015-05-14T02:33:55.549Z,95163
2015-05-14T02:34:14.127Z,95160
2015-05-14T02:34:32.613Z,95157
2015-05-14T02:34:51.019Z,95160
2015-05-14T02:35:09.504Z,95166
2015-05-14T02:35:27.881Z,95163
2015-05-14T02:35:46.303Z,95166
2015-05-14T02:36:04.740Z,95163
2015-05-14T02:36:23.181Z,95172
2015-05-14T02:36:41.571Z,95160
2015-05-14T02:37:00.009Z,95160
2015-05-14T02:37:18.321Z,95166
2015-05-14T02:37:36.715Z,95160
2015-05-14T02:37:55.105Z,95152
2015-05-14T02:38:13.512Z,95161
2015-05-14T02:38:32.076Z,95163
2015-05-14T02:38:50.467Z,95166
2015-05-14T02:39:09.029Z,95163
2015-05-14T02:39:27.607Z,95160
2015-05-14T02:39:45.969Z,95152
2015-05-14T02:40:04.391Z,95163
2015-05-14T02:40:22.219Z,95160
2015-05-14T02:40:40.691Z,95160
2015-05-14T02:40:58.987Z,95155
2015-05-14T02:41:17.409Z,95149
2015-05-14T02:41:36.022Z,95163
2015-05-14T02:41:54.662Z,95160
2015-05-14T02:42:13.115Z,95152
2015-05-14T02:42:31.678Z,95155
2015-05-14T02:42:49.992Z,95157
2015-05-14T02:43:08.461Z,95160
2015-05-14T02:43:26.836Z,95157
2015-05-14T02:43:45.276Z,95155
2015-05-14T02:44:03.698Z,95163
2015-05-14T02:44:22.416Z,95163
2015-05-14T02:44:40.901Z,95155
2015-05-14T02:44:59.512Z,95155
2015-05-14T02:45:18.028Z,95155
2015-05-14T02:45:36.403Z,95155
2015-05-14T02:45:54.968Z,95160
2015-05-14T02:46:13.515Z,95158
2015-05-14T02:46:31.968Z,95149
2015-05-14T02:46:50.595Z,95158
2015-05-14T02:47:09.142Z,95161
2015-05-14T02:47:27.564Z,95158
2015-05-14T02:47:46.017Z,95155
2015-05-14T02:48:04.550Z,95155
2015-05-14T02:48:22.972Z,95146
2015-05-14T02:48:41.519Z,95152
2015-05-14T02:48:59.975Z,95146
2015-05-14T02:49:18.475Z,95143
2015-05-14T02:49:36.881Z,95155
2015-05-14T02:49:55.352Z,95140
2015-05-14T02:50:13.743Z,95146
2015-05-14T02:50:32.149Z,95140
2015-05-14T02:50:50.604Z,95163
2015-05-14T02:51:09.151Z,95152
2015-05-14T02:51:27.760Z,95141
2015-05-14T02:51:46.214Z,95143
2015-05-14T02:52:04.763Z,95149
2015-05-14T02:52:23.154Z,95149
2015-05-14T02:52:41.888Z,95155
2015-05-14T02:53:00.312Z,95144
2015-05-14T02:53:18.734Z,95138
2015-05-14T02:53:37.515Z,95141
2015-05-14T02:53:56.049Z,95147
2015-05-14T02:54:14.689Z,95150
2015-05-14T02:54:33.189Z,95150
2015-05-14T02:54:51.642Z,95150
2015-05-14T02:55:09.942Z,95153
2015-05-14T02:55:28.645Z,95155
2015-05-14T02:55:47.208Z,95155
2015-05-14T02:56:05.758Z,95153
2015-05-14T02:56:24.430Z,95150
2015-05-14T02:56:42.867Z,95153
2015-05-14T02:57:01.274Z,95159
2015-05-14T02:57:19.962Z,95159
2015-05-14T02:57:38.384Z,95164
2015-05-14T02:57:56.774Z,95159
2015-05-14T02:58:15.324Z,95159
2015-05-14T02:58:33.981Z,95167
2015-05-14T02:58:52.949Z,95173
2015-05-14T02:59:11.451Z,95165
2015-05-14T02:59:29.983Z,95167
2015-05-14T02:59:48.467Z,95176
2015-05-14T03:00:06.861Z,95170
2015-05-14T03:00:25.407Z,95179
2015-05-14T03:00:43.392Z,95179
2015-05-14T03:01:01.861Z,95173
2015-05-14T03:01:20.347Z,95179
2015-05-14T03:01:39.128Z,95167
2015-05-14T03:01:57.738Z,95173
2015-05-14T03:02:16.444Z,95173
2015-05-14T03:02:34.991Z,95170
2015-05-14T03:02:53.647Z,95173
2015-05-14T03:03:12.118Z,95162
2015-05-14T03:03:30.743Z,95168
2015-05-14T03:03:49.133Z,95168
2015-05-14T03:04:07.555Z,95171
2015-05-14T03:04:26.026Z,95176
2015-05-14T03:04:44.541Z,95174
2015-05-14T03:05:03.041Z,95176
2015-05-14T03:05:21.513Z,95179
2015-05-14T03:05:40.060Z,95182
2015-05-14T03:05:58.623Z,95180
2015-05-14T03:06:17.513Z,95180
2015-05-14T03:06:36.140Z,95177
2015-05-14T03:06:54.609Z,95180
2015-05-14T03:07:13.156Z,95186
2015-05-14T03:07:31.612Z,95189
2015-05-14T03:07:50.221Z,95192
2015-05-14T03:08:08.878Z,95195
2015-05-14T03:08:27.332Z,95192
2015-05-14T03:08:46.050Z,95186
2015-05-14T03:09:04.754Z,95189
2015-05-14T03:09:23.383Z,95192
2015-05-14T03:09:41.804Z,95184
2015-05-14T03:10:00.195Z,95192
2015-05-14T03:10:18.711Z,95186
2015-05-14T03:10:37.135Z,95186
2015-05-14T03:10:55.681Z,95183
2015-05-14T03:11:14.510Z,95189
2015-05-14T03:11:32.918Z,95195
2015-05-14T03:11:51.699Z,95181
2015-05-14T03:12:10.293Z,95192
2015-05-14T03:12:28.795Z,95198
2015-05-14T03:12:47.264Z,95186
2015-05-14T03:13:05.717Z,95192
2015-05-14T03:13:24.279Z,95198
2015-05-14T03:13:42.673Z,95195
2015-05-14T03:14:01.173Z,95198
2015-05-14T03:14:19.688Z,95198
2015-05-14T03:14:38.206Z,95202
2015-05-14T03:14:56.831Z,95202
2015-05-14T03:15:15.362Z,95202
2015-05-14T03:15:33.786Z,95208
2015-05-14T03:15:52.255Z,95202
2015-05-14T03:16:11.021Z,95194
2015-05-14T03:16:29.536Z,95205
2015-05-14T03:16:48.133Z,95208
2015-05-14T03:17:06.680Z,95197
2015-05-14T03:17:24.914Z,95194
2015-05-14T03:17:43.369Z,95202
2015-05-14T03:18:02.026Z,95202
2015-05-14T03:18:20.651Z,95210
2015-05-14T03:18:39.435Z,95210
2015-05-14T03:18:57.950Z,95210
2015-05-14T03:19:16.544Z,95207
2015-05-14T03:19:35.249Z,95202
2015-05-14T03:19:53.749Z,95205
2015-05-14T03:20:12.327Z,95204
2015-05-14T03:20:30.921Z,95210
2015-05-14T03:20:49.487Z,95216
2015-05-14T03:21:07.987Z,95210
2015-05-14T03:21:26.534Z,95210
2015-05-14T03:21:45.192Z,95210
2015-05-14T03:22:03.629Z,95224
2015-05-14T03:22:22.223Z,95216
2015-05-14T03:22:40.801Z,95207
2015-05-14T03:22:59.334Z,95215
2015-05-14T03:23:17.866Z,95218
2015-05-14T03:23:36.413Z,95215
2015-05-14T03:23:54.978Z,95209
2015-05-14T03:24:13.587Z,95232
2015-05-14T03:24:32.181Z,95224
2015-05-14T03:24:50.681Z,95221
2015-05-14T03:25:09.105Z,95224
2015-05-14T03:25:27.605Z,95218
2015-05-14T03:25:46.183Z,95212
2015-05-14T03:26:04.857Z,95203
2015-05-14T03:26:23.529Z,95209
2015-05-14T03:26:42.248Z,95204
2015-05-14T03:27:00.673Z,95212
2015-05-14T03:27:19.251Z,95203
2015-05-14T03:27:37.688Z,95203
2015-05-14T03:27:56.081Z,95193
2015-05-14T03:28:14.534Z,95196
2015-05-14T03:28:33.003Z,95184
2015-05-14T03:28:51.456Z,95187
2015-05-14T03:29:10.053Z,95190
2015-05-14T03:29:28.474Z,95190
2015-05-14T03:29:46.912Z,95196
2015-05-14T03:30:05.491Z,95196
2015-05-14T03:30:24.054Z,95203
2015-05-14T03:30:42.475Z,95196
2015-05-14T03:31:00.900Z,95206
2015-05-14T03:31:19.541Z,95212
2015-05-14T03:31:38.010Z,95218
2015-05-14T03:31:56.494Z,95215
2015-05-14T03:32:14.902Z,95218
2015-05-14T03:32:33.543Z,95215
2015-05-14T03:32:51.949Z,95215
2015-05-14T03:33:10.343Z,95215
2015-05-14T03:33:28.827Z,95207
2015-05-14T03:33:47.499Z,95209
2015-05-14T03:34:06.032Z,95210
2015-05-14T03:34:24.532Z,95210
2015-05-14T03:34:42.985Z,95210
2015-05-14T03:35:01.439Z,95204
2015-05-14T03:35:19.831Z,95210
2015-05-14T03:35:38.222Z,95216
2015-05-14T03:35:56.644Z,95207
2015-05-14T03:36:15.131Z,95209
2015-05-14T03:36:33.662Z,95207
2015-05-14T03:36:52.037Z,95207
2015-05-14T03:37:10.617Z,95218
2015-05-14T03:37:29.227Z,95215
2015-05-14T03:37:47.649Z,95203
2015-05-14T03:38:06.242Z,95215
2015-05-14T03:38:24.823Z,95215
2015-05-14T03:38:43.432Z,95220
2015-05-14T03:39:01.823Z,95217
2015-05-14T03:39:20.310Z,95220
2015-05-14T03:39:38.982Z,95220
2015-05-14T03:39:57.544Z,95209
2015-05-14T03:40:15.984Z,95220
2015-05-14T03:40:34.562Z,95212
2015-05-14T03:40:53.156Z,95209
2015-05-14T03:41:11.720Z,95211
2015-05-14T03:41:30.267Z,95214
2015-05-14T03:41:48.861Z,95203
2015-05-14T03:42:07.298Z,95209
2015-05-14T03:42:26.036Z,95217
2015-05-14T03:42:44.473Z,95214
2015-05-14T03:43:03.129Z,95212
2015-05-14T03:43:21.663Z,95214
2015-05-14T03:43:40.256Z,95211
2015-05-14T03:43:58.756Z,95209
2015-05-14T03:44:17.319Z,95209
2015-05-14T03:44:35.947Z,95209
2015-05-14T03:44:54.478Z,95217
2015-05-14T03:45:12.994Z,95208
2015-05-14T03:45:31.652Z,95206
2015-05-14T03:45:49.418Z,95206
2015-05-14T03:46:07.840Z,95214
2015-05-14T03:46:26.546Z,95206
2015-05-14T03:46:45.139Z,95211
2015-05-14T03:47:03.593Z,95214
2015-05-14T03:47:21.999Z,95203
2015-05-14T03:47:40.579Z,95223
2015-05-14T03:47:59.079Z,95226
2015-05-14T03:48:17.766Z,95220
2015-05-14T03:48:36.160Z,95217
2015-05-14T03:48:54.832Z,95218
2015-05-14T03:49:13.488Z,95218
2015-05-14T03:49:31.928Z,95215
2015-05-14T03:49:50.381Z,95220
2015-05-14T03:50:08.865Z,95198
2015-05-14T03:50:27.336Z,95212
2015-05-14T03:50:45.805Z,95217
2015-05-14T03:51:04.211Z,95209
2015-05-14T03:51:22.836Z,95221
2015-05-14T03:51:41.386Z,95221
2015-05-14T03:52:00.292Z,95218
2015-05-14T03:52:18.573Z,95221
2015-05-14T03:52:37.059Z,95209
2015-05-14T03:52:55.652Z,95221
2015-05-14T03:53:14.262Z,95209
2015-05-14T03:53:32.913Z,95209
2015-05-14T03:53:51.460Z,95209
2015-05-14T03:54:09.898Z,95218
2015-05-14T03:54:28.382Z,95212
2015-05-14T03:54:47.166Z,95221
2015-05-14T03:55:05.588Z,95221
2015-05-14T03:55:24.119Z,95212
2015-05-14T03:55:42.560Z,95215
2015-05-14T03:56:01.232Z,95215
2015-05-14T03:56:19.826Z,95212
2015-05-14T03:56:38.284Z,95209
2015-05-14T03:56:57.096Z,95218
2015-05-14T03:57:15.612Z,95218
2015-05-14T03:57:34.002Z,95215
2015-05-14T03:57:52.630Z,95209
2015-05-14T03:58:11.287Z,95218
2015-05-14T03:58:29.974Z,95215
2015-05-14T03:58:48.445Z,95217
2015-05-14T03:59:07.101Z,95212